sensor_id;sensor_type;location;lat;lon;timestamp;temperature;humidity
26164;DHT22;13914;48.178;11.716;2022-12-19T00:02:07;-4.50;99.90
26164;DHT22;13914;48.178;11.716;2022-12-19T00:04:32;-4.50;99.90
26164;DHT22;13914;48.178;11.716;2022-12-19T00:06:58;-4.50;99.90
26164;DHT22;13914;48.178;11.716;2022-12-19T00:09:24;-4.50;99.90
26164;DHT22;13914;48.178;11.716;2022-12-19T00:11:50;-4.50;99.90
26164;DHT22;13914;48.178;11.716;2022-12-19T00:14:16;-4.40;99.90
26164;DHT22;13914;48.178;11.716;2022-12-19T00:16:42;-4.50;99.90
26164;DHT22;13914;48.178;11.716;2022-12-19T00:19:08;-4.50;99.90
26164;DHT22;13914;48.178;11.716;2022-12-19T00:21:34;-4.40;99.90
26164;DHT22;13914;48.178;11.716;2022-12-19T00:24:00;-4.40;99.90
26164;DHT22;13914;48.178;11.716;2022-12-19T00:26:28;-4.50;99.90
26164;DHT22;13914;48.178;11.716;2022-12-19T00:28:59;-4.50;99.90
26164;DHT22;13914;48.178;11.716;2022-12-19T00:31:28;-4.40;99.90
26164;DHT22;13914;48.178;11.716;2022-12-19T00:33:55;-4.50;99.90
26164;DHT22;13914;48.178;11.716;2022-12-19T00:36:22;-4.50;99.90
26164;DHT22;13914;48.178;11.716;2022-12-19T00:38:52;-4.50;99.90
26164;DHT22;13914;48.178;11.716;2022-12-19T00:41:23;-4.40;99.90
26164;DHT22;13914;48.178;11.716;2022-12-19T00:43:53;-4.40;99.90
26164;DHT22;13914;48.178;11.716;2022-12-19T00:46:21;-4.40;99.90
26164;DHT22;13914;48.178;11.716;2022-12-19T00:48:47;-4.40;99.90
26164;DHT22;13914;48.178;11.716;2022-12-19T00:51:17;-4.40;99.90
26164;DHT22;13914;48.178;11.716;2022-12-19T00:53:45;-4.40;99.90
26164;DHT22;13914;48.178;11.716;2022-12-19T00:56:12;-4.40;99.90
26164;DHT22;13914;48.178;11.716;2022-12-19T00:58:40;-4.40;99.90
26164;DHT22;13914;48.178;11.716;2022-12-19T01:01:07;-4.40;99.90
26164;DHT22;13914;48.178;11.716;2022-12-19T01:03:34;-4.40;99.90
26164;DHT22;13914;48.178;11.716;2022-12-19T01:06:00;-4.40;99.90
26164;DHT22;13914;48.178;11.716;2022-12-19T01:08:26;-4.40;99.90
26164;DHT22;13914;48.178;11.716;2022-12-19T01:10:52;-4.40;99.90
26164;DHT22;13914;48.178;11.716;2022-12-19T01:13:19;-4.40;99.90
26164;DHT22;13914;48.178;11.716;2022-12-19T01:15:46;-4.40;99.90
26164;DHT22;13914;48.178;11.716;2022-12-19T01:18:12;-4.40;99.90
26164;DHT22;13914;48.178;11.716;2022-12-19T01:20:39;-4.40;99.90
26164;DHT22;13914;48.178;11.716;2022-12-19T01:23:06;-4.40;99.90
26164;DHT22;13914;48.178;11.716;2022-12-19T01:25:35;-4.40;99.90
26164;DHT22;13914;48.178;11.716;2022-12-19T01:28:02;-4.40;99.90
26164;DHT22;13914;48.178;11.716;2022-12-19T01:30:28;-4.40;99.90
26164;DHT22;13914;48.178;11.716;2022-12-19T01:32:55;-4.40;99.90
26164;DHT22;13914;48.178;11.716;2022-12-19T01:35:21;-4.40;99.90
26164;DHT22;13914;48.178;11.716;2022-12-19T01:37:47;-4.40;99.90
26164;DHT22;13914;48.178;11.716;2022-12-19T01:40:16;-4.40;99.90
26164;DHT22;13914;48.178;11.716;2022-12-19T01:42:42;-4.40;99.90
26164;DHT22;13914;48.178;11.716;2022-12-19T01:47:53;-4.30;99.90
26164;DHT22;13914;48.178;11.716;2022-12-19T01:50:28;-4.40;99.90
26164;DHT22;13914;48.178;11.716;2022-12-19T01:52:59;-4.40;99.90
26164;DHT22;13914;48.178;11.716;2022-12-19T01:55:25;-4.40;99.90
26164;DHT22;13914;48.178;11.716;2022-12-19T01:57:51;-4.40;99.90
26164;DHT22;13914;48.178;11.716;2022-12-19T02:00:18;-4.40;99.90
26164;DHT22;13914;48.178;11.716;2022-12-19T02:02:44;-4.40;99.90
26164;DHT22;13914;48.178;11.716;2022-12-19T02:05:13;-4.40;99.90
26164;DHT22;13914;48.178;11.716;2022-12-19T02:07:38;-4.30;99.90
26164;DHT22;13914;48.178;11.716;2022-12-19T02:10:05;-4.40;99.90
26164;DHT22;13914;48.178;11.716;2022-12-19T02:12:32;-4.40;99.90
26164;DHT22;13914;48.178;11.716;2022-12-19T02:14:59;-4.40;99.90
26164;DHT22;13914;48.178;11.716;2022-12-19T02:23:30;-4.40;99.90
26164;DHT22;13914;48.178;11.716;2022-12-19T02:32:18;-4.40;99.90
26164;DHT22;13914;48.178;11.716;2022-12-19T02:34:54;-4.40;99.90
26164;DHT22;13914;48.178;11.716;2022-12-19T02:37:29;-4.40;99.90
26164;DHT22;13914;48.178;11.716;2022-12-19T02:42:40;-4.40;99.90
26164;DHT22;13914;48.178;11.716;2022-12-19T02:45:10;-4.40;99.90
26164;DHT22;13914;48.178;11.716;2022-12-19T02:47:37;-4.30;99.90
26164;DHT22;13914;48.178;11.716;2022-12-19T02:50:04;-4.30;99.90
26164;DHT22;13914;48.178;11.716;2022-12-19T02:54:56;-4.30;99.90
26164;DHT22;13914;48.178;11.716;2022-12-19T03:00:07;-4.30;99.90
26164;DHT22;13914;48.178;11.716;2022-12-19T03:08:25;-4.40;99.90
26164;DHT22;13914;48.178;11.716;2022-12-19T03:10:57;-4.40;99.90
26164;DHT22;13914;48.178;11.716;2022-12-19T03:16:17;-4.40;99.90
26164;DHT22;13914;48.178;11.716;2022-12-19T03:18:43;-4.40;99.90
26164;DHT22;13914;48.178;11.716;2022-12-19T03:23:56;-4.40;99.90
26164;DHT22;13914;48.178;11.716;2022-12-19T03:26:24;-4.40;99.90
26164;DHT22;13914;48.178;11.716;2022-12-19T03:29:10;-4.40;99.90
26164;DHT22;13914;48.178;11.716;2022-12-19T03:31:39;-4.40;99.90
26164;DHT22;13914;48.178;11.716;2022-12-19T03:34:10;-4.40;99.90
26164;DHT22;13914;48.178;11.716;2022-12-19T03:36:44;-4.40;99.90
26164;DHT22;13914;48.178;11.716;2022-12-19T03:39:11;-4.40;99.90
26164;DHT22;13914;48.178;11.716;2022-12-19T03:41:38;-4.40;99.90
26164;DHT22;13914;48.178;11.716;2022-12-19T03:44:24;-4.40;99.90
26164;DHT22;13914;48.178;11.716;2022-12-19T03:46:57;-4.40;99.90
26164;DHT22;13914;48.178;11.716;2022-12-19T03:49:26;-4.30;99.90
26164;DHT22;13914;48.178;11.716;2022-12-19T03:51:59;-4.30;99.90
26164;DHT22;13914;48.178;11.716;2022-12-19T03:57:48;-4.30;99.90
26164;DHT22;13914;48.178;11.716;2022-12-19T04:00:18;-4.30;99.90
26164;DHT22;13914;48.178;11.716;2022-12-19T04:02:45;-4.30;99.90
26164;DHT22;13914;48.178;11.716;2022-12-19T04:05:22;-4.30;99.90
26164;DHT22;13914;48.178;11.716;2022-12-19T04:07:49;-4.30;99.90
26164;DHT22;13914;48.178;11.716;2022-12-19T04:10:18;-4.30;99.90
26164;DHT22;13914;48.178;11.716;2022-12-19T04:12:52;-4.30;99.90
26164;DHT22;13914;48.178;11.716;2022-12-19T04:15:21;-4.30;99.90
26164;DHT22;13914;48.178;11.716;2022-12-19T04:17:58;-4.30;99.90
26164;DHT22;13914;48.178;11.716;2022-12-19T04:20:25;-4.30;99.90
26164;DHT22;13914;48.178;11.716;2022-12-19T04:25:38;-4.30;99.90
26164;DHT22;13914;48.178;11.716;2022-12-19T04:28:17;-4.30;99.90
26164;DHT22;13914;48.178;11.716;2022-12-19T04:30:45;-4.30;99.90
26164;DHT22;13914;48.178;11.716;2022-12-19T04:33:12;-4.30;99.90
26164;DHT22;13914;48.178;11.716;2022-12-19T04:35:38;-4.30;99.90
26164;DHT22;13914;48.178;11.716;2022-12-19T04:38:04;-4.30;99.90
26164;DHT22;13914;48.178;11.716;2022-12-19T04:40:30;-4.30;99.90
26164;DHT22;13914;48.178;11.716;2022-12-19T04:42:56;-4.20;99.90
26164;DHT22;13914;48.178;11.716;2022-12-19T04:45:21;-4.30;99.90
26164;DHT22;13914;48.178;11.716;2022-12-19T04:47:47;-4.20;99.90
26164;DHT22;13914;48.178;11.716;2022-12-19T04:50:13;-4.20;99.90
26164;DHT22;13914;48.178;11.716;2022-12-19T04:52:39;-4.20;99.90
26164;DHT22;13914;48.178;11.716;2022-12-19T04:55:05;-4.20;99.90
26164;DHT22;13914;48.178;11.716;2022-12-19T04:57:31;-4.20;99.90
26164;DHT22;13914;48.178;11.716;2022-12-19T04:59:57;-4.20;99.90
26164;DHT22;13914;48.178;11.716;2022-12-19T05:02:23;-4.20;99.90
26164;DHT22;13914;48.178;11.716;2022-12-19T05:04:49;-4.20;99.90
26164;DHT22;13914;48.178;11.716;2022-12-19T05:07:15;-4.20;99.90
26164;DHT22;13914;48.178;11.716;2022-12-19T05:09:43;-4.20;99.90
26164;DHT22;13914;48.178;11.716;2022-12-19T05:12:09;-4.20;99.90
26164;DHT22;13914;48.178;11.716;2022-12-19T05:14:35;-4.20;99.90
26164;DHT22;13914;48.178;11.716;2022-12-19T05:17:01;-4.20;99.90
26164;DHT22;13914;48.178;11.716;2022-12-19T05:19:27;-4.20;99.90
26164;DHT22;13914;48.178;11.716;2022-12-19T05:21:52;-4.20;99.90
26164;DHT22;13914;48.178;11.716;2022-12-19T05:24:18;-4.20;99.90
26164;DHT22;13914;48.178;11.716;2022-12-19T05:26:44;-4.10;99.90
26164;DHT22;13914;48.178;11.716;2022-12-19T05:29:09;-4.10;99.90
26164;DHT22;13914;48.178;11.716;2022-12-19T05:31:35;-4.10;99.90
26164;DHT22;13914;48.178;11.716;2022-12-19T05:34:01;-4.10;99.90
26164;DHT22;13914;48.178;11.716;2022-12-19T05:36:27;-4.10;99.90
26164;DHT22;13914;48.178;11.716;2022-12-19T05:38:52;-4.10;99.90
26164;DHT22;13914;48.178;11.716;2022-12-19T05:41:19;-4.10;99.90
26164;DHT22;13914;48.178;11.716;2022-12-19T05:43:47;-4.10;99.90
26164;DHT22;13914;48.178;11.716;2022-12-19T05:46:14;-4.10;99.90
26164;DHT22;13914;48.178;11.716;2022-12-19T05:48:40;-4.00;99.90
26164;DHT22;13914;48.178;11.716;2022-12-19T05:51:06;-4.00;99.90
26164;DHT22;13914;48.178;11.716;2022-12-19T05:53:34;-4.00;99.90
26164;DHT22;13914;48.178;11.716;2022-12-19T05:56:14;-4.00;99.90
26164;DHT22;13914;48.178;11.716;2022-12-19T05:58:44;-4.00;99.90
26164;DHT22;13914;48.178;11.716;2022-12-19T06:01:11;-4.00;99.90
26164;DHT22;13914;48.178;11.716;2022-12-19T06:03:44;-4.00;99.90
26164;DHT22;13914;48.178;11.716;2022-12-19T06:06:11;-4.00;99.90
26164;DHT22;13914;48.178;11.716;2022-12-19T06:08:39;-4.00;99.90
26164;DHT22;13914;48.178;11.716;2022-12-19T06:11:06;-4.00;99.90
26164;DHT22;13914;48.178;11.716;2022-12-19T06:13:32;-3.90;99.90
26164;DHT22;13914;48.178;11.716;2022-12-19T06:15:59;-3.90;99.90
26164;DHT22;13914;48.178;11.716;2022-12-19T06:18:26;-3.90;99.90
26164;DHT22;13914;48.178;11.716;2022-12-19T06:21:02;-3.90;99.90
26164;DHT22;13914;48.178;11.716;2022-12-19T06:23:33;-3.90;99.90
26164;DHT22;13914;48.178;11.716;2022-12-19T06:26:00;-3.90;99.90
26164;DHT22;13914;48.178;11.716;2022-12-19T06:28:28;-3.90;99.90
26164;DHT22;13914;48.178;11.716;2022-12-19T06:30:58;-3.80;99.90
26164;DHT22;13914;48.178;11.716;2022-12-19T06:33:25;-3.80;99.90
26164;DHT22;13914;48.178;11.716;2022-12-19T06:35:58;-3.80;99.90
26164;DHT22;13914;48.178;11.716;2022-12-19T06:38:28;-3.80;99.90
26164;DHT22;13914;48.178;11.716;2022-12-19T06:40:54;-3.80;99.90
26164;DHT22;13914;48.178;11.716;2022-12-19T06:43:39;-3.80;99.90
26164;DHT22;13914;48.178;11.716;2022-12-19T06:46:05;-3.70;99.90
26164;DHT22;13914;48.178;11.716;2022-12-19T06:48:30;-3.70;99.90
26164;DHT22;13914;48.178;11.716;2022-12-19T06:50:56;-3.70;99.90
26164;DHT22;13914;48.178;11.716;2022-12-19T06:53:22;-3.70;99.90
26164;DHT22;13914;48.178;11.716;2022-12-19T06:55:48;-3.70;99.90
26164;DHT22;13914;48.178;11.716;2022-12-19T06:58:15;-3.70;99.90
26164;DHT22;13914;48.178;11.716;2022-12-19T07:00:40;-3.70;99.90
26164;DHT22;13914;48.178;11.716;2022-12-19T07:03:06;-3.60;99.90
26164;DHT22;13914;48.178;11.716;2022-12-19T07:05:34;-3.70;99.90
26164;DHT22;13914;48.178;11.716;2022-12-19T07:08:00;-3.70;99.90
26164;DHT22;13914;48.178;11.716;2022-12-19T07:10:26;-3.60;99.90
26164;DHT22;13914;48.178;11.716;2022-12-19T07:12:51;-3.60;99.90
26164;DHT22;13914;48.178;11.716;2022-12-19T07:15:17;-3.60;99.90
26164;DHT22;13914;48.178;11.716;2022-12-19T07:17:43;-3.60;99.90
26164;DHT22;13914;48.178;11.716;2022-12-19T07:20:08;-3.60;99.90
26164;DHT22;13914;48.178;11.716;2022-12-19T07:22:35;-3.60;99.90
26164;DHT22;13914;48.178;11.716;2022-12-19T07:25:01;-3.60;99.90
26164;DHT22;13914;48.178;11.716;2022-12-19T07:27:28;-3.50;99.90
26164;DHT22;13914;48.178;11.716;2022-12-19T07:29:53;-3.50;99.90
26164;DHT22;13914;48.178;11.716;2022-12-19T07:32:19;-3.50;99.90
26164;DHT22;13914;48.178;11.716;2022-12-19T07:34:45;-3.50;99.90
26164;DHT22;13914;48.178;11.716;2022-12-19T07:37:11;-3.50;99.90
26164;DHT22;13914;48.178;11.716;2022-12-19T07:39:37;-3.50;99.90
26164;DHT22;13914;48.178;11.716;2022-12-19T07:42:02;-3.50;99.90
26164;DHT22;13914;48.178;11.716;2022-12-19T07:44:28;-3.50;99.90
26164;DHT22;13914;48.178;11.716;2022-12-19T07:46:54;-3.40;99.90
26164;DHT22;13914;48.178;11.716;2022-12-19T07:49:20;-3.40;99.90
26164;DHT22;13914;48.178;11.716;2022-12-19T07:51:45;-3.40;99.90
26164;DHT22;13914;48.178;11.716;2022-12-19T07:54:11;-3.40;99.90
26164;DHT22;13914;48.178;11.716;2022-12-19T07:56:37;-3.30;99.90
26164;DHT22;13914;48.178;11.716;2022-12-19T07:59:02;-3.30;99.90
26164;DHT22;13914;48.178;11.716;2022-12-19T08:01:28;-3.30;99.90
26164;DHT22;13914;48.178;11.716;2022-12-19T08:03:54;-3.30;99.90
26164;DHT22;13914;48.178;11.716;2022-12-19T08:06:19;-3.20;99.90
26164;DHT22;13914;48.178;11.716;2022-12-19T08:08:45;-3.20;99.90
26164;DHT22;13914;48.178;11.716;2022-12-19T08:11:12;-3.10;99.90
26164;DHT22;13914;48.178;11.716;2022-12-19T08:13:41;-3.10;99.90
26164;DHT22;13914;48.178;11.716;2022-12-19T08:16:07;-3.10;99.90
26164;DHT22;13914;48.178;11.716;2022-12-19T08:18:32;-3.10;99.90
26164;DHT22;13914;48.178;11.716;2022-12-19T08:20:58;-3.00;99.90
26164;DHT22;13914;48.178;11.716;2022-12-19T08:23:24;-3.00;99.90
26164;DHT22;13914;48.178;11.716;2022-12-19T08:25:57;-3.00;99.90
26164;DHT22;13914;48.178;11.716;2022-12-19T08:28:33;-2.90;99.90
26164;DHT22;13914;48.178;11.716;2022-12-19T08:31:07;-2.90;99.90
26164;DHT22;13914;48.178;11.716;2022-12-19T08:33:34;-2.90;99.90
26164;DHT22;13914;48.178;11.716;2022-12-19T08:36:04;-2.80;99.90
26164;DHT22;13914;48.178;11.716;2022-12-19T08:38:31;-2.80;99.90
26164;DHT22;13914;48.178;11.716;2022-12-19T08:40:57;-2.70;99.90
26164;DHT22;13914;48.178;11.716;2022-12-19T08:43:22;-2.70;99.90
26164;DHT22;13914;48.178;11.716;2022-12-19T08:45:48;-2.60;99.90
26164;DHT22;13914;48.178;11.716;2022-12-19T08:48:15;-2.60;99.90
26164;DHT22;13914;48.178;11.716;2022-12-19T08:50:54;-2.50;99.90
26164;DHT22;13914;48.178;11.716;2022-12-19T08:53:21;-2.50;99.90
26164;DHT22;13914;48.178;11.716;2022-12-19T08:55:52;-2.40;99.90
26164;DHT22;13914;48.178;11.716;2022-12-19T08:58:19;-2.30;99.90
26164;DHT22;13914;48.178;11.716;2022-12-19T09:00:45;-2.30;99.90
26164;DHT22;13914;48.178;11.716;2022-12-19T09:03:10;-2.30;99.90
26164;DHT22;13914;48.178;11.716;2022-12-19T09:05:37;-2.20;99.90
26164;DHT22;13914;48.178;11.716;2022-12-19T09:08:03;-2.10;99.90
26164;DHT22;13914;48.178;11.716;2022-12-19T09:10:28;-2.10;99.90
26164;DHT22;13914;48.178;11.716;2022-12-19T09:12:55;-2.00;99.90
26164;DHT22;13914;48.178;11.716;2022-12-19T09:15:22;-1.90;99.90
26164;DHT22;13914;48.178;11.716;2022-12-19T09:17:47;-1.90;99.90
26164;DHT22;13914;48.178;11.716;2022-12-19T09:20:13;-1.80;99.90
26164;DHT22;13914;48.178;11.716;2022-12-19T09:22:39;-1.70;99.90
26164;DHT22;13914;48.178;11.716;2022-12-19T09:25:07;-1.70;99.90
26164;DHT22;13914;48.178;11.716;2022-12-19T09:27:39;-1.60;99.90
26164;DHT22;13914;48.178;11.716;2022-12-19T09:30:06;-1.50;99.90
26164;DHT22;13914;48.178;11.716;2022-12-19T09:32:32;-1.50;99.90
26164;DHT22;13914;48.178;11.716;2022-12-19T09:34:58;-1.40;99.90
26164;DHT22;13914;48.178;11.716;2022-12-19T09:37:23;-1.30;99.90
26164;DHT22;13914;48.178;11.716;2022-12-19T09:39:49;-1.30;99.90
26164;DHT22;13914;48.178;11.716;2022-12-19T09:45:33;-1.20;99.90
26164;DHT22;13914;48.178;11.716;2022-12-19T09:47:57;-1.10;99.90
26164;DHT22;13914;48.178;11.716;2022-12-19T09:52:59;-1.00;99.90
26164;DHT22;13914;48.178;11.716;2022-12-19T09:55:31;-0.90;99.90
26164;DHT22;13914;48.178;11.716;2022-12-19T10:00:56;-0.80;99.90
26164;DHT22;13914;48.178;11.716;2022-12-19T10:05:52;-0.60;99.90
26164;DHT22;13914;48.178;11.716;2022-12-19T10:08:26;-0.60;99.90
26164;DHT22;13914;48.178;11.716;2022-12-19T10:19:20;-0.40;99.90
26164;DHT22;13914;48.178;11.716;2022-12-19T10:21:57;-0.30;99.90
26164;DHT22;13914;48.178;11.716;2022-12-19T10:27:01;-0.10;99.90
26164;DHT22;13914;48.178;11.716;2022-12-19T10:32:33;0.00;99.90
26164;DHT22;13914;48.178;11.716;2022-12-19T10:35:16;0.10;99.90
26164;DHT22;13914;48.178;11.716;2022-12-19T10:40:36;0.20;99.90
26164;DHT22;13914;48.178;11.716;2022-12-19T10:45:53;0.30;99.90
26164;DHT22;13914;48.178;11.716;2022-12-19T10:48:22;0.40;99.90
26164;DHT22;13914;48.178;11.716;2022-12-19T10:50:48;0.40;99.90
26164;DHT22;13914;48.178;11.716;2022-12-19T10:53:15;0.50;99.90
26164;DHT22;13914;48.178;11.716;2022-12-19T11:03:30;0.80;99.90
26164;DHT22;13914;48.178;11.716;2022-12-19T11:05:59;0.80;99.90
26164;DHT22;13914;48.178;11.716;2022-12-19T11:08:30;0.90;99.90
26164;DHT22;13914;48.178;11.716;2022-12-19T11:16:01;1.00;99.90
26164;DHT22;13914;48.178;11.716;2022-12-19T11:18:41;1.10;99.90
26164;DHT22;13914;48.178;11.716;2022-12-19T11:23:37;1.10;99.90
26164;DHT22;13914;48.178;11.716;2022-12-19T11:26:26;1.20;99.90
26164;DHT22;13914;48.178;11.716;2022-12-19T11:29:26;1.30;99.90
26164;DHT22;13914;48.178;11.716;2022-12-19T11:32:21;1.30;99.90
26164;DHT22;13914;48.178;11.716;2022-12-19T11:34:48;1.40;99.90
26164;DHT22;13914;48.178;11.716;2022-12-19T11:37:16;1.40;99.90
26164;DHT22;13914;48.178;11.716;2022-12-19T11:42:30;1.50;99.90
26164;DHT22;13914;48.178;11.716;2022-12-19T11:48:14;1.60;99.90
26164;DHT22;13914;48.178;11.716;2022-12-19T11:56:27;1.80;99.90
26164;DHT22;13914;48.178;11.716;2022-12-19T11:58:56;1.80;99.90
26164;DHT22;13914;48.178;11.716;2022-12-19T12:01:37;1.90;99.90
26164;DHT22;13914;48.178;11.716;2022-12-19T12:07:03;2.00;99.90
26164;DHT22;13914;48.178;11.716;2022-12-19T12:12:24;2.10;99.90
26164;DHT22;13914;48.178;11.716;2022-12-19T12:21:03;2.20;99.90
26164;DHT22;13914;48.178;11.716;2022-12-19T12:26:25;2.30;99.90
26164;DHT22;13914;48.178;11.716;2022-12-19T12:29:02;2.30;99.90
26164;DHT22;13914;48.178;11.716;2022-12-19T12:39:42;2.40;99.90
26164;DHT22;13914;48.178;11.716;2022-12-19T12:44:58;2.40;99.90
26164;DHT22;13914;48.178;11.716;2022-12-19T12:47:27;2.40;99.90
26164;DHT22;13914;48.178;11.716;2022-12-19T12:49:58;2.50;99.90
26164;DHT22;13914;48.178;11.716;2022-12-19T12:52:33;2.50;99.90
26164;DHT22;13914;48.178;11.716;2022-12-19T12:55:02;2.50;99.90
26164;DHT22;13914;48.178;11.716;2022-12-19T12:57:34;2.60;99.90
26164;DHT22;13914;48.178;11.716;2022-12-19T13:00:43;2.60;99.90
26164;DHT22;13914;48.178;11.716;2022-12-19T13:03:02;2.60;99.90
26164;DHT22;13914;48.178;11.716;2022-12-19T13:11:11;2.70;99.90
26164;DHT22;13914;48.178;11.716;2022-12-19T13:14:02;2.70;99.90
26164;DHT22;13914;48.178;11.716;2022-12-19T13:19:17;2.70;99.90
26164;DHT22;13914;48.178;11.716;2022-12-19T13:24:40;2.70;99.90
26164;DHT22;13914;48.178;11.716;2022-12-19T13:27:30;2.80;99.90
26164;DHT22;13914;48.178;11.716;2022-12-19T13:35:29;2.80;99.90
26164;DHT22;13914;48.178;11.716;2022-12-19T13:40:50;2.80;99.90
26164;DHT22;13914;48.178;11.716;2022-12-19T13:43:20;2.90;99.90
26164;DHT22;13914;48.178;11.716;2022-12-19T13:48:52;2.90;99.90
26164;DHT22;13914;48.178;11.716;2022-12-19T13:51:21;2.90;99.90
26164;DHT22;13914;48.178;11.716;2022-12-19T13:53:50;2.90;99.80
26164;DHT22;13914;48.178;11.716;2022-12-19T13:56:17;2.90;99.90
26164;DHT22;13914;48.178;11.716;2022-12-19T13:58:53;2.90;99.90
26164;DHT22;13914;48.178;11.716;2022-12-19T14:03:54;2.90;99.80
26164;DHT22;13914;48.178;11.716;2022-12-19T14:06:29;2.90;99.70
26164;DHT22;13914;48.178;11.716;2022-12-19T14:09:07;2.90;99.80
26164;DHT22;13914;48.178;11.716;2022-12-19T14:11:42;2.90;99.70
26164;DHT22;13914;48.178;11.716;2022-12-19T14:14:15;2.90;99.70
26164;DHT22;13914;48.178;11.716;2022-12-19T14:17:34;2.90;99.70
26164;DHT22;13914;48.178;11.716;2022-12-19T14:19:53;2.90;99.70
26164;DHT22;13914;48.178;11.716;2022-12-19T14:22:19;2.80;99.80
26164;DHT22;13914;48.178;11.716;2022-12-19T14:27:18;2.80;99.90
26164;DHT22;13914;48.178;11.716;2022-12-19T14:29:51;2.80;99.80
26164;DHT22;13914;48.178;11.716;2022-12-19T14:32:21;2.70;99.80
26164;DHT22;13914;48.178;11.716;2022-12-19T14:34:47;2.70;99.80
26164;DHT22;13914;48.178;11.716;2022-12-19T14:40:06;2.70;99.90
26164;DHT22;13914;48.178;11.716;2022-12-19T14:42:58;2.60;99.90
26164;DHT22;13914;48.178;11.716;2022-12-19T14:45:42;2.60;99.90
26164;DHT22;13914;48.178;11.716;2022-12-19T14:48:31;2.50;99.90
26164;DHT22;13914;48.178;11.716;2022-12-19T14:53:42;2.50;99.90
26164;DHT22;13914;48.178;11.716;2022-12-19T14:56:43;2.40;99.90
26164;DHT22;13914;48.178;11.716;2022-12-19T14:59:25;2.40;99.90
26164;DHT22;13914;48.178;11.716;2022-12-19T15:01:54;2.40;99.90
26164;DHT22;13914;48.178;11.716;2022-12-19T15:04:24;2.40;99.90
26164;DHT22;13914;48.178;11.716;2022-12-19T15:06:56;2.30;99.90
26164;DHT22;13914;48.178;11.716;2022-12-19T15:09:23;2.30;99.90
26164;DHT22;13914;48.178;11.716;2022-12-19T15:11:53;2.20;99.90
26164;DHT22;13914;48.178;11.716;2022-12-19T15:14:43;2.10;99.90
26164;DHT22;13914;48.178;11.716;2022-12-19T15:17:23;2.10;99.90
26164;DHT22;13914;48.178;11.716;2022-12-19T15:19:50;2.10;99.90
26164;DHT22;13914;48.178;11.716;2022-12-19T15:22:16;2.10;99.90
26164;DHT22;13914;48.178;11.716;2022-12-19T15:24:42;2.00;99.90
26164;DHT22;13914;48.178;11.716;2022-12-19T15:27:10;2.00;99.90
26164;DHT22;13914;48.178;11.716;2022-12-19T15:29:38;2.00;99.90
26164;DHT22;13914;48.178;11.716;2022-12-19T15:32:03;1.90;99.90
26164;DHT22;13914;48.178;11.716;2022-12-19T15:34:30;1.80;99.90
26164;DHT22;13914;48.178;11.716;2022-12-19T15:36:58;1.80;99.90
26164;DHT22;13914;48.178;11.716;2022-12-19T15:39:25;1.80;99.90
26164;DHT22;13914;48.178;11.716;2022-12-19T15:41:54;1.80;99.90
26164;DHT22;13914;48.178;11.716;2022-12-19T15:44:24;1.70;99.90
26164;DHT22;13914;48.178;11.716;2022-12-19T15:46:53;1.70;99.90
26164;DHT22;13914;48.178;11.716;2022-12-19T15:49:20;1.60;99.90
26164;DHT22;13914;48.178;11.716;2022-12-19T15:51:46;1.60;99.90
26164;DHT22;13914;48.178;11.716;2022-12-19T15:54:12;1.60;99.90
26164;DHT22;13914;48.178;11.716;2022-12-19T15:56:46;1.50;99.90
26164;DHT22;13914;48.178;11.716;2022-12-19T16:01:50;1.50;99.90
26164;DHT22;13914;48.178;11.716;2022-12-19T16:04:17;1.50;99.90
26164;DHT22;13914;48.178;11.716;2022-12-19T16:06:43;1.40;99.90
26164;DHT22;13914;48.178;11.716;2022-12-19T16:09:21;1.40;99.90
26164;DHT22;13914;48.178;11.716;2022-12-19T16:11:48;1.40;99.90
26164;DHT22;13914;48.178;11.716;2022-12-19T16:14:15;1.40;99.90
26164;DHT22;13914;48.178;11.716;2022-12-19T16:16:40;1.40;99.90
26164;DHT22;13914;48.178;11.716;2022-12-19T16:21:52;1.30;99.90
26164;DHT22;13914;48.178;11.716;2022-12-19T16:24:17;1.20;99.90
26164;DHT22;13914;48.178;11.716;2022-12-19T16:26:43;1.20;99.90
26164;DHT22;13914;48.178;11.716;2022-12-19T16:29:16;1.20;99.90
26164;DHT22;13914;48.178;11.716;2022-12-19T16:31:43;1.20;99.90
26164;DHT22;13914;48.178;11.716;2022-12-19T16:34:16;1.10;99.90
26164;DHT22;13914;48.178;11.716;2022-12-19T16:36:47;1.10;99.90
26164;DHT22;13914;48.178;11.716;2022-12-19T16:39:12;1.10;99.90
26164;DHT22;13914;48.178;11.716;2022-12-19T16:41:39;1.10;99.90
26164;DHT22;13914;48.178;11.716;2022-12-19T16:44:11;1.00;99.90
26164;DHT22;13914;48.178;11.716;2022-12-19T16:46:43;1.00;99.90
26164;DHT22;13914;48.178;11.716;2022-12-19T16:49:16;1.00;99.90
26164;DHT22;13914;48.178;11.716;2022-12-19T16:51:43;1.00;99.90
26164;DHT22;13914;48.178;11.716;2022-12-19T16:54:10;0.90;99.90
26164;DHT22;13914;48.178;11.716;2022-12-19T16:56:38;0.90;99.90
26164;DHT22;13914;48.178;11.716;2022-12-19T16:59:11;0.90;99.90
26164;DHT22;13914;48.178;11.716;2022-12-19T17:01:40;0.90;99.90
26164;DHT22;13914;48.178;11.716;2022-12-19T17:04:08;0.80;99.90
26164;DHT22;13914;48.178;11.716;2022-12-19T17:06:37;0.80;99.90
26164;DHT22;13914;48.178;11.716;2022-12-19T17:09:03;0.80;99.90
26164;DHT22;13914;48.178;11.716;2022-12-19T17:11:28;0.80;99.90
26164;DHT22;13914;48.178;11.716;2022-12-19T17:14:02;0.80;99.90
26164;DHT22;13914;48.178;11.716;2022-12-19T17:16:32;0.70;99.90
26164;DHT22;13914;48.178;11.716;2022-12-19T17:18:58;0.70;99.90
26164;DHT22;13914;48.178;11.716;2022-12-19T17:21:24;0.70;99.90
26164;DHT22;13914;48.178;11.716;2022-12-19T17:23:50;0.70;99.90
26164;DHT22;13914;48.178;11.716;2022-12-19T17:26:16;0.60;99.90
26164;DHT22;13914;48.178;11.716;2022-12-19T17:28:42;0.70;99.90
26164;DHT22;13914;48.178;11.716;2022-12-19T17:31:17;0.60;99.90
26164;DHT22;13914;48.178;11.716;2022-12-19T17:33:46;0.60;99.90
26164;DHT22;13914;48.178;11.716;2022-12-19T17:36:12;0.60;99.90
26164;DHT22;13914;48.178;11.716;2022-12-19T17:38:41;0.60;99.90
26164;DHT22;13914;48.178;11.716;2022-12-19T17:41:14;0.60;99.90
26164;DHT22;13914;48.178;11.716;2022-12-19T17:43:41;0.50;99.90
26164;DHT22;13914;48.178;11.716;2022-12-19T17:46:17;0.50;99.90
26164;DHT22;13914;48.178;11.716;2022-12-19T17:48:44;0.50;99.90
26164;DHT22;13914;48.178;11.716;2022-12-19T17:51:14;0.50;99.90
26164;DHT22;13914;48.178;11.716;2022-12-19T17:53:41;0.40;99.90
26164;DHT22;13914;48.178;11.716;2022-12-19T17:56:13;0.40;99.90
26164;DHT22;13914;48.178;11.716;2022-12-19T17:58:40;0.40;99.90
26164;DHT22;13914;48.178;11.716;2022-12-19T18:01:13;0.40;99.90
26164;DHT22;13914;48.178;11.716;2022-12-19T18:03:41;0.40;99.90
26164;DHT22;13914;48.178;11.716;2022-12-19T18:06:07;0.40;99.90
26164;DHT22;13914;48.178;11.716;2022-12-19T18:08:34;0.40;99.90
26164;DHT22;13914;48.178;11.716;2022-12-19T18:11:00;0.40;99.90
26164;DHT22;13914;48.178;11.716;2022-12-19T18:13:28;0.30;99.90
26164;DHT22;13914;48.178;11.716;2022-12-19T18:15:55;0.30;99.90
26164;DHT22;13914;48.178;11.716;2022-12-19T18:18:24;0.30;99.90